Time;durP1;ratioP1;P1;durP2;ratioP2;P2;SDS_P1;SDS_P2;PMS_P1;PMS_P2;Temp;Humidity;BMP_temperature;BMP_pressure;BME280_temperature;BME280_humidity;BME280_pressure;Samples;Min_cycle;Max_cycle;Signal;HPM_P1;HPM_P2
2022/04/09 00:01:23;;;;;;;13.10;8.40;;;;;;;28.28;42.56;100919.84;5115789;27;69885;-34
2022/04/09 00:03:53;;;;;;;11.93;8.43;;;;;;;28.19;42.82;100915.63;5109880;27;66295;-34
2022/04/09 00:06:24;;;;;;;9.30;8.48;;;;;;;28.26;42.40;100916.50;5117145;27;70902;-35
2022/04/09 00:08:55;;;;;;;9.98;7.63;;;;;;;28.32;42.31;100931.06;5111936;27;65225;-34
2022/04/09 00:11:25;;;;;;;11.20;8.73;;;;;;;28.34;42.49;100929.81;5112634;27;70480;-34
2022/04/09 00:13:56;;;;;;;11.23;8.93;;;;;;;28.28;42.77;100920.69;5105791;27;65150;-34
2022/04/09 00:16:26;;;;;;;30.33;15.48;;;;;;;28.51;51.33;100936.56;5103304;27;70094;-32
2022/04/09 00:18:57;;;;;;;36.08;16.92;;;;;;;28.70;64.99;100948.44;5102789;27;64962;-34
2022/04/09 00:21:29;;;;;;;65.00;19.02;;;;;;;28.77;67.83;100948.44;5092417;27;69011;-33
2022/04/09 00:23:59;;;;;;;48.97;18.15;;;;;;;28.78;69.81;100946.56;5114123;27;66081;-33
2022/04/09 00:26:30;;;;;;;48.20;18.48;;;;;;;28.95;68.62;100954.09;5101628;27;70120;-33
2022/04/09 00:29:01;;;;;;;48.47;18.25;;;;;;;28.94;69.70;100949.72;5122080;27;66599;-34
2022/04/09 00:31:32;;;;;;;58.92;19.13;;;;;;;29.10;69.28;100972.00;5129010;27;70263;-33
2022/04/09 00:34:05;;;;;;;48.17;18.77;;;;;;;29.04;70.02;100962.03;5126779;27;66293;-34
2022/04/09 00:36:38;;;;;;;49.67;19.85;;;;;;;29.16;70.62;100976.59;5109606;27;70204;-35
2022/04/09 00:39:09;;;;;;;54.23;19.87;;;;;;;29.16;70.08;100976.59;5111267;27;66678;-35
2022/04/09 00:41:47;;;;;;;53.75;19.50;;;;;;;29.29;70.02;100992.81;5117783;27;68502;-34
2022/04/09 00:44:19;;;;;;;44.03;18.40;;;;;;;29.31;68.43;100984.47;5102085;27;66416;-34
2022/04/09 00:46:50;;;;;;;42.78;17.40;;;;;;;29.39;70.31;100997.78;5106199;27;69406;-33
2022/04/09 00:49:21;;;;;;;45.90;17.20;;;;;;;29.55;69.56;100986.56;5104501;27;66315;-34
2022/04/09 00:51:54;;;;;;;49.65;17.50;;;;;;;29.64;69.35;100997.19;5124705;27;70203;-35
2022/04/09 00:54:27;;;;;;;30.83;14.55;;;;;;;29.85;64.24;100991.56;5108744;27;66906;-34
2022/04/09 00:57:05;;;;;;;30.15;14.05;;;;;;;29.97;63.60;100989.84;5124180;27;69312;-34
2022/04/09 00:59:37;;;;;;;34.65;14.80;;;;;;;30.04;63.27;100984.44;5114213;27;66369;-34
2022/04/09 01:02:09;;;;;;;41.30;15.65;;;;;;;30.15;62.59;100991.91;5113975;27;69966;-34
2022/04/09 01:04:43;;;;;;;34.38;14.30;;;;;;;30.13;62.58;100982.34;5110718;27;66038;-34
2022/04/09 01:07:14;;;;;;;32.20;14.00;;;;;;;30.30;62.22;100994.38;5124102;27;69781;-34
2022/04/09 01:09:45;;;;;;;32.57;15.40;;;;;;;30.34;62.11;101000.19;5114738;27;66161;-34
2022/04/09 01:12:16;;;;;;;24.05;12.93;;;;;;;30.44;62.30;100997.88;5111822;27;69183;-35
2022/04/09 01:14:47;;;;;;;32.03;14.10;;;;;;;30.49;61.62;101001.59;5113864;27;66592;-35
2022/04/09 01:17:19;;;;;;;25.13;13.55;;;;;;;30.51;61.63;100987.84;5112427;27;70249;-35
2022/04/09 01:19:50;;;;;;;31.55;15.00;;;;;;;30.57;61.91;100995.09;5118253;27;66249;-35
2022/04/09 01:22:20;;;;;;;22.27;13.27;;;;;;;30.68;61.13;100997.13;5129345;27;70243;-34
2022/04/09 01:24:51;;;;;;;22.95;13.45;;;;;;;30.70;61.34;100989.63;5114756;27;66083;-35
2022/04/09 01:27:22;;;;;;;23.25;13.38;;;;;;;30.77;61.07;100999.59;5114407;27;70117;-34
2022/04/09 01:29:52;;;;;;;32.47;13.70;;;;;;;30.87;61.52;101016.22;5110670;27;65515;-34
2022/04/09 01:32:38;;;;;;;23.73;13.35;;;;;;;30.85;62.12;101012.91;5112381;27;70171;-35
2022/04/09 01:35:10;;;;;;;22.80;12.80;;;;;;;30.95;60.96;101013.25;5086658;27;66708;-35
2022/04/09 01:37:41;;;;;;;28.30;14.30;;;;;;;30.96;61.09;101009.50;5080596;27;70062;-35
2022/04/09 01:40:12;;;;;;;17.17;13.07;;;;;;;31.05;60.79;101013.63;5106108;27;66054;-36
2022/04/09 01:42:48;;;;;;;24.55;14.10;;;;;;;31.04;61.17;101009.25;5087683;27;70690;-35
2022/04/09 01:45:19;;;;;;;24.77;12.97;;;;;;;31.14;60.97;101022.31;5088650;27;65353;-35
2022/04/09 01:47:50;;;;;;;17.63;12.40;;;;;;;31.09;61.18;101001.31;5107564;27;70240;-35
2022/04/09 01:50:26;;;;;;;18.85;12.63;;;;;;;31.21;60.43;101011.44;5118947;27;66465;-35
2022/04/09 01:52:57;;;;;;;24.30;13.45;;;;;;;31.27;60.63;101015.97;5110159;27;70457;-34
2022/04/09 01:55:28;;;;;;;21.43;12.90;;;;;;;31.30;60.66;101010.94;5114746;27;66149;-34
2022/04/09 01:57:59;;;;;;;20.95;12.80;;;;;;;31.36;60.17;101014.69;5121632;27;70494;-34
2022/04/09 02:00:35;;;;;;;19.13;12.93;;;;;;;31.40;60.70;101015.91;5119839;27;66514;-34
2022/04/09 02:03:09;;;;;;;18.48;12.40;;;;;;;31.43;60.17;101012.75;5119969;27;70239;-33
2022/04/09 02:06:03;;;;;;;19.33;12.57;;;;;;;31.37;60.80;101010.91;5119057;27;65527;-34
2022/04/09 02:08:34;;;;;;;19.90;13.00;;;;;;;31.16;59.80;100956.00;5104358;27;70524;-37
2022/04/09 02:11:15;;;;;;;17.20;11.80;;;;;;;31.34;59.79;100990.50;5101603;27;65727;-34
2022/04/09 02:13:46;;;;;;;38.03;19.38;;;;;;;31.25;61.82;101015.34;5109368;27;70309;-36
2022/04/09 02:16:18;;;;;;;59.60;22.00;;;;;;;30.97;61.44;100962.41;5089690;27;65608;-36
2022/04/09 02:18:49;;;;;;;38.23;21.20;;;;;;;31.08;62.32;101002.34;5090383;27;70089;-35
2022/04/09 02:21:20;;;;;;;43.25;20.40;;;;;;;31.10;61.12;101002.94;5121999;27;67507;-34
2022/04/09 02:23:51;;;;;;;41.90;23.00;;;;;;;31.14;60.68;101003.34;5119477;27;70334;-34
2022/04/09 02:26:22;;;;;;;39.92;23.17;;;;;;;31.10;59.85;101002.94;5102497;27;66535;-35
2022/04/09 02:28:56;;;;;;;40.92;23.63;;;;;;;31.01;60.08;100984.47;5113342;27;70205;-35
2022/04/09 02:31:27;;;;;;;52.97;25.75;;;;;;;31.11;59.23;100990.22;5112367;27;66216;-35
2022/04/09 02:33:59;;;;;;;46.78;24.83;;;;;;;31.03;59.22;100969.66;5106578;27;70300;-34
2022/04/09 02:36:32;;;;;;;52.28;25.45;;;;;;;31.05;60.03;100981.09;5107468;27;67451;-34
2022/04/09 02:39:04;;;;;;;40.58;25.05;;;;;;;31.16;60.34;100987.69;5111047;27;69384;-33
2022/04/09 02:41:35;;;;;;;45.38;26.15;;;;;;;31.15;60.40;100992.28;5114741;27;66509;-33
2022/04/09 02:44:06;;;;;;;45.10;25.75;;;;;;;31.19;60.63;100991.84;5110669;27;71077;-35
2022/04/09 02:46:38;;;;;;;43.55;25.08;;;;;;;31.19;60.65;100991.84;5107712;27;65714;-35
2022/04/09 02:49:09;;;;;;;52.58;28.10;;;;;;;31.24;60.13;100989.31;5109489;27;70011;-34
2022/04/09 02:51:40;;;;;;;48.60;26.05;;;;;;;31.24;60.84;100983.91;5097668;27;65292;-35
2022/04/09 02:54:49;;;;;;;46.08;24.73;;;;;;;31.13;60.11;100972.72;5116197;27;69742;-35
2022/04/09 02:57:20;;;;;;;47.65;24.80;;;;;;;31.24;59.08;100989.31;5105871;27;65181;-34
2022/04/09 02:59:52;;;;;;;44.53;23.90;;;;;;;31.14;59.07;100959.97;5105052;27;69848;-34
2022/04/09 03:02:23;;;;;;;38.65;23.48;;;;;;;31.34;59.54;100995.06;5109423;27;66320;-35
2022/04/09 03:04:56;;;;;;;39.55;22.83;;;;;;;31.35;59.62;100992.13;5103658;27;70075;-35
2022/04/09 03:07:28;;;;;;;41.17;23.27;;;;;;;31.36;58.75;100988.41;5108992;27;65273;-35
2022/04/09 03:09:58;;;;;;;;;;;;;;;31.12;59.39;100986.47;5107074;27;70029;-35
2022/04/09 03:12:29;;;;;;;38.67;23.35;;;;;;;31.27;59.22;100961.78;5120351;27;65314;-33
2022/04/09 03:15:22;;;;;;;33.60;21.58;;;;;;;31.41;59.19;100984.22;5106198;27;69996;-34
2022/04/09 03:17:53;;;;;;;32.53;21.25;;;;;;;31.46;59.69;100987.91;5112543;27;66362;-35
2022/04/09 03:20:26;;;;;;;34.97;21.42;;;;;;;31.45;59.47;100980.81;5111132;27;69743;-34
2022/04/09 03:22:58;;;;;;;30.60;20.40;;;;;;;31.52;59.93;100980.78;5088221;27;66422;-36
2022/04/09 03:25:48;;;;;;;25.67;19.88;;;;;;;31.59;59.54;100987.81;5095356;27;69189;-35
2022/04/09 03:28:40;;;;;;;28.20;20.33;;;;;;;31.53;59.50;100980.53;5090540;27;66738;-35
2022/04/09 03:31:36;;;;;;;29.48;19.92;;;;;;;31.56;59.77;100977.38;5115942;27;70565;-35
2022/04/09 03:35:07;;;;;;;32.72;19.83;;;;;;;31.57;59.84;100973.63;5111606;27;66081;-36
2022/04/09 03:37:39;;;;;;;29.02;18.13;;;;;;;31.53;60.23;100961.56;5050714;28;70506;-35
2022/04/09 03:40:11;;;;;;;27.60;18.15;;;;;;;31.63;60.05;100965.66;5034046;28;66110;-36
2022/04/09 03:42:43;;;;;;;28.55;18.05;;;;;;;31.64;59.60;100959.16;5073168;27;70029;-36
2022/04/09 03:45:15;;;;;;;25.10;18.05;;;;;;;31.72;60.10;100972.44;5121620;27;65613;-36
2022/04/09 03:47:46;;;;;;;23.55;17.33;;;;;;;31.75;60.26;100969.28;5108482;27;70540;-35
2022/04/09 03:50:18;;;;;;;26.10;18.15;;;;;;;31.72;59.65;100948.03;5113076;27;66253;-36
2022/04/09 03:52:52;;;;;;;28.63;16.98;;;;;;;31.80;59.72;100956.69;5109457;27;69984;-36
2022/04/09 03:55:29;;;;;;;23.10;16.45;;;;;;;31.80;59.42;100954.00;5092965;27;65554;-35
2022/04/09 03:58:02;;;;;;;25.02;17.48;;;;;;;31.84;60.02;100951.66;5121412;27;69457;-36
2022/04/09 04:00:34;;;;;;;25.10;15.63;;;;;;;31.83;59.96;100942.69;5102448;27;65465;-34
2022/04/09 04:03:07;;;;;;;22.30;16.95;;;;;;;31.78;59.41;100936.28;5113155;27;69329;-36
2022/04/09 04:05:38;;;;;;;21.13;16.55;;;;;;;31.84;59.64;100929.94;5110086;27;66577;-35
2022/04/09 04:08:10;;;;;;;22.27;15.77;;;;;;;31.91;59.48;100936.16;5126091;27;70528;-36
2022/04/09 04:10:42;;;;;;;27.88;16.02;;;;;;;31.80;59.31;100916.00;5097106;27;66262;-35
2022/04/09 04:13:22;;;;;;;16.77;15.02;;;;;;;31.98;58.90;100926.09;5127325;27;70441;-35
2022/04/09 04:15:56;;;;;;;18.70;14.40;;;;;;;31.93;59.00;100906.09;5108301;27;65585;-35
2022/04/09 04:18:27;;;;;;;22.30;15.48;;;;;;;32.00;58.99;100923.13;5119591;27;69067;-36
2022/04/09 04:21:00;;;;;;;22.08;14.88;;;;;;;32.01;59.03;100906.63;5105119;27;67290;-35
2022/04/09 04:23:31;;;;;;;20.30;14.67;;;;;;;32.02;59.10;100911.00;5127631;27;69427;-35
2022/04/09 04:26:10;;;;;;;15.57;14.02;;;;;;;32.03;58.78;100909.94;5097154;27;66505;-35
2022/04/09 04:28:42;;;;;;;20.65;14.80;;;;;;;32.04;58.48;100908.88;5112537;27;69536;-35
2022/04/09 04:31:14;;;;;;;21.00;15.17;;;;;;;31.72;58.06;100847.69;5114701;27;66086;-34
2022/04/09 04:33:46;;;;;;;15.98;14.27;;;;;;;32.04;57.73;100908.88;5092118;27;69203;-35
2022/04/09 04:36:16;;;;;;;16.15;14.43;;;;;;;32.07;57.60;100913.03;5111016;27;66373;-35
2022/04/09 04:38:48;;;;;;;16.70;13.50;;;;;;;32.09;57.51;100904.66;5117274;27;70212;-37
2022/04/09 04:41:19;;;;;;;19.38;14.65;;;;;;;32.05;57.45;100894.25;5112032;27;66500;-35
2022/04/09 04:43:52;;;;;;;15.15;13.60;;;;;;;32.12;57.50;100893.34;5101177;27;71194;-36
2022/04/09 04:47:06;;;;;;;16.08;13.52;;;;;;;32.03;57.42;100890.09;5101918;27;66172;-36
2022/04/09 04:49:37;;;;;;;17.98;14.55;;;;;;;32.16;57.40;100887.22;5126776;27;69965;-35
2022/04/09 04:52:08;;;;;;;22.15;17.27;;;;;;;32.17;57.15;100879.91;5115887;27;65887;-35
2022/04/09 04:54:39;;;;;;;21.40;16.55;;;;;;;32.07;56.92;100880.47;5109663;27;69985;-35
2022/04/09 04:57:10;;;;;;;19.85;15.75;;;;;;;31.81;55.33;100876.16;5112140;27;65416;-35
2022/04/09 04:59:41;;;;;;;19.08;16.58;;;;;;;31.61;54.45;100860.13;5093563;27;69263;-34
2022/04/09 05:02:11;;;;;;;18.17;15.15;;;;;;;31.41;53.21;100848.66;5120629;27;66187;-35
2022/04/09 05:04:43;;;;;;;;;;;;;;;31.00;52.41;100848.19;5107692;27;69584;-36
2022/04/09 05:07:14;;;;;;;18.83;14.88;;;;;;;31.12;51.45;100835.59;5126106;27;67621;-35
2022/04/09 05:09:45;;;;;;;17.23;15.30;;;;;;;31.04;51.13;100838.56;5121283;27;70059;-34
2022/04/09 05:12:16;;;;;;;15.50;14.27;;;;;;;30.95;50.52;100823.63;5119169;27;66300;-35
2022/04/09 05:14:47;;;;;;;15.95;14.48;;;;;;;30.72;49.62;100808.81;5106432;27;69867;-35
2022/04/09 05:17:20;;;;;;;16.35;13.82;;;;;;;30.80;49.17;100823.16;5100503;27;65214;-34
2022/04/09 05:19:52;;;;;;;;;;;;;;;30.47;48.68;100811.50;5104641;27;70368;-35
2022/04/09 05:22:25;;;;;;;15.00;13.65;;;;;;;30.64;48.26;100800.94;5108306;27;66657;-34
2022/04/09 05:25:02;;;;;;;15.18;13.75;;;;;;;30.63;47.75;100804.72;5098758;27;69609;-34
2022/04/09 05:27:33;;;;;;;;;;;;;;;30.35;47.34;100796.19;5109549;27;65259;-35
2022/04/09 05:30:10;;;;;;;13.82;12.45;;;;;;;30.54;46.59;100794.41;5105001;27;70582;-34
2022/04/09 05:32:44;;;;;;;12.52;11.45;;;;;;;30.89;47.60;100781.19;5097088;27;66355;-36
2022/04/09 05:35:16;;;;;;;12.80;11.63;;;;;;;31.02;46.72;100775.66;5121207;27;70083;-33
2022/04/09 05:37:52;;;;;;;13.27;12.25;;;;;;;31.00;45.29;100750.66;5119027;27;66234;-34
2022/04/09 05:40:27;;;;;;;13.05;11.85;;;;;;;31.14;44.91;100764.91;5107539;27;70250;-34
2022/04/09 05:43:03;;;;;;;13.98;12.57;;;;;;;31.20;44.13;100766.69;5120076;27;66502;-34
2022/04/09 05:45:34;;;;;;;12.35;11.25;;;;;;;31.21;43.63;100759.44;5097117;27;70679;-35
2022/04/09 05:48:05;;;;;;;13.18;12.02;;;;;;;31.22;43.36;100759.19;5101845;27;65747;-35
2022/04/09 05:50:59;;;;;;;16.85;12.30;;;;;;;31.27;43.13;100753.09;5099176;27;69979;-34
2022/04/09 05:53:35;;;;;;;13.30;12.10;;;;;;;31.27;43.00;100734.94;5104497;27;66388;-35
2022/04/09 05:56:07;;;;;;;12.05;10.98;;;;;;;31.22;41.57;100731.25;5082613;27;69871;-36
2022/04/09 05:58:42;;;;;;;13.20;12.07;;;;;;;31.25;41.73;100730.81;5102644;27;66140;-35
2022/04/09 06:01:34;;;;;;;12.73;11.75;;;;;;;31.23;41.82;100722.06;5100706;27;70373;-34
2022/04/09 06:04:10;;;;;;;13.75;11.80;;;;;;;31.19;41.31;100719.00;5112375;27;66709;-34
2022/04/09 06:06:40;;;;;;;12.75;11.75;;;;;;;31.22;41.08;100726.66;5118871;27;69375;-32
2022/04/09 06:09:15;;;;;;;13.32;11.32;;;;;;;31.25;41.73;100718.06;5120187;27;65630;-33
2022/04/09 06:11:52;;;;;;;12.98;11.82;;;;;;;31.21;40.52;100711.47;5101115;27;69855;-34
2022/04/09 06:14:29;;;;;;;13.30;12.20;;;;;;;31.22;40.25;100704.16;5117337;27;66132;-36
2022/04/09 06:17:03;;;;;;;13.95;12.68;;;;;;;31.26;40.89;100700.78;5099725;27;69594;-35
2022/04/09 06:19:35;;;;;;;13.38;12.48;;;;;;;30.94;41.16;100649.47;5117876;27;66171;-34
2022/04/09 06:22:07;;;;;;;12.13;11.43;;;;;;;31.28;40.49;100695.94;5120705;27;70403;-34
2022/04/09 06:24:38;;;;;;;12.90;11.82;;;;;;;31.27;39.94;100688.88;5122841;27;65464;-34
2022/04/09 06:27:11;;;;;;;11.95;11.15;;;;;;;31.26;39.57;100683.66;5110520;27;70504;-34
2022/04/09 06:29:42;;;;;;;13.75;12.55;;;;;;;31.33;40.22;100681.72;5101147;27;65674;-34
2022/04/09 06:32:13;;;;;;;12.45;11.55;;;;;;;31.31;39.11;100678.41;5123321;27;69339;-33
2022/04/09 06:34:44;;;;;;;12.85;11.63;;;;;;;31.22;39.62;100644.53;5124218;27;65562;-34
2022/04/09 06:37:21;;;;;;;12.45;11.45;;;;;;;31.33;39.33;100657.31;5093366;27;69047;-34
2022/04/09 06:39:52;;;;;;;14.23;11.57;;;;;;;31.33;39.54;100662.75;5098477;27;65610;-33
2022/04/09 06:42:22;;;;;;;12.40;11.32;;;;;;;31.20;38.82;100633.09;5117238;27;70122;-34
2022/04/09 06:45:16;;;;;;;13.15;12.18;;;;;;;31.30;39.17;100655.06;5098435;27;66794;-33
2022/04/09 06:48:07;;;;;;;12.77;11.57;;;;;;;31.27;38.63;100642.00;5107186;27;69810;-35
2022/04/09 06:50:49;;;;;;;13.27;11.05;;;;;;;31.38;39.65;100650.19;5107974;27;66196;-33
2022/04/09 06:53:21;;;;;;;12.95;11.95;;;;;;;31.36;38.63;100644.16;5109725;27;69667;-35
2022/04/09 06:56:04;;;;;;;11.75;10.75;;;;;;;31.07;38.17;100583.47;5103101;27;66179;-34
2022/04/09 06:58:36;;;;;;;13.45;12.35;;;;;;;31.45;38.96;100639.25;5108361;27;70324;-34
2022/04/09 07:01:08;;;;;;;13.05;11.93;;;;;;;31.34;38.36;100612.91;5114624;27;65240;-34
2022/04/09 07:03:41;;;;;;;12.80;11.90;;;;;;;31.39;38.60;100597.63;5108855;27;70212;-35
2022/04/09 07:06:15;;;;;;;13.07;12.07;;;;;;;31.50;38.80;100612.28;5111980;27;65579;-34
2022/04/09 07:08:47;;;;;;;13.60;12.18;;;;;;;31.53;38.21;100613.69;5110078;27;70404;-35
2022/04/09 07:11:18;;;;;;;13.20;12.20;;;;;;;31.51;37.86;100613.94;5105697;27;66584;-33
2022/04/09 07:13:49;;;;;;;13.10;12.00;;;;;;;31.51;38.10;100605.81;5101470;27;70230;-34
2022/04/09 07:16:20;;;;;;;12.38;11.57;;;;;;;31.39;37.69;100585.97;5106018;27;66729;-35
2022/04/09 07:18:51;;;;;;;12.97;12.07;;;;;;;31.37;37.59;100590.78;5111760;27;69799;-34
2022/04/09 07:21:22;;;;;;;13.35;12.27;;;;;;;31.44;37.82;100594.22;5108028;27;66541;-35
2022/04/09 07:23:53;;;;;;;13.35;12.30;;;;;;;31.41;38.04;100588.47;5105106;27;72131;-35
2022/04/09 07:26:23;;;;;;;13.60;12.52;;;;;;;31.44;37.46;100593.41;5109040;27;66376;-34
2022/04/09 07:28:54;;;;;;;14.13;12.88;;;;;;;31.43;37.44;100591.78;5105264;27;69472;-35
2022/04/09 07:31:25;;;;;;;13.57;12.55;;;;;;;31.42;37.73;100574.66;5103285;27;66710;-34
2022/04/09 07:33:56;;;;;;;14.77;13.40;;;;;;;31.42;37.51;100574.66;5101801;27;70051;-35
2022/04/09 07:36:28;;;;;;;13.05;12.15;;;;;;;31.44;37.41;100580.69;5101509;27;66621;-35
2022/04/09 07:38:59;;;;;;;13.95;12.80;;;;;;;31.43;37.33;100570.91;5099167;27;70402;-35
2022/04/09 07:41:30;;;;;;;13.98;12.75;;;;;;;31.47;36.88;100577.50;5107630;27;64998;-35
2022/04/09 07:44:01;;;;;;;13.38;12.43;;;;;;;31.46;36.95;100575.84;5102413;27;70200;-36
2022/04/09 07:46:31;;;;;;;12.70;11.80;;;;;;;31.47;37.02;100572.09;5109862;27;66038;-35
2022/04/09 07:49:02;;;;;;;13.68;12.70;;;;;;;31.44;36.55;100577.16;5099766;27;71404;-34
2022/04/09 07:51:33;;;;;;;13.40;12.40;;;;;;;31.53;37.20;100586.59;5115454;27;66284;-34
2022/04/09 07:54:24;;;;;;;13.55;12.40;;;;;;;31.54;37.16;100594.50;5096103;27;70728;-34
2022/04/09 07:56:54;;;;;;;;;;;;;;;31.34;37.21;100583.09;5104863;27;66356;-35
2022/04/09 07:59:30;;;;;;;14.13;12.90;;;;;;;31.45;36.92;100567.94;5105828;27;69803;-34
2022/04/09 08:02:09;;;;;;;13.70;12.50;;;;;;;31.56;36.71;100578.81;5109993;27;66212;-34
2022/04/09 08:04:55;;;;;;;13.95;12.93;;;;;;;31.63;36.66;100586.03;5108920;27;68776;-34
2022/04/09 08:07:28;;;;;;;13.93;12.55;;;;;;;31.29;36.60;100524.16;5106629;27;65740;-34
2022/04/09 08:09:59;;;;;;;15.25;13.65;;;;;;;31.65;36.88;100578.47;5132747;27;69337;-33
2022/04/09 08:12:30;;;;;;;16.50;14.52;;;;;;;31.59;37.34;100567.53;5116918;27;66056;-33
2022/04/09 08:15:01;;;;;;;19.95;15.43;;;;;;;31.92;40.39;100585.16;5106592;27;70332;-36
2022/04/09 08:17:40;;;;;;;17.13;15.50;;;;;;;32.02;41.47;100579.97;5100255;27;66304;-34
2022/04/09 08:20:13;;;;;;;16.90;15.33;;;;;;;31.98;41.72;100573.38;5108781;27;69938;-33
2022/04/09 08:22:44;;;;;;;16.73;15.23;;;;;;;32.04;40.90;100583.28;5105860;27;67006;-34
2022/04/09 08:25:16;;;;;;;17.25;15.52;;;;;;;32.05;41.08;100579.50;5105747;27;70175;-34
2022/04/09 08:27:49;;;;;;;16.17;14.48;;;;;;;32.05;41.49;100574.09;5107070;27;66312;-34
2022/04/09 08:30:22;;;;;;;21.80;14.50;;;;;;;32.05;41.16;100576.78;5087042;27;69094;-35
2022/04/09 08:32:54;;;;;;;16.23;14.57;;;;;;;31.93;40.42;100557.00;5093593;27;65689;-34
2022/04/09 08:35:24;;;;;;;17.02;15.32;;;;;;;32.08;40.90;100570.06;5103411;27;70373;-36
2022/04/09 08:37:58;;;;;;;16.63;15.27;;;;;;;32.10;40.72;100569.84;5108225;27;65496;-34
2022/04/09 08:40:29;;;;;;;16.65;15.27;;;;;;;32.05;40.79;100568.66;5114897;27;70571;-34
2022/04/09 08:43:00;;;;;;;17.13;15.35;;;;;;;32.05;40.25;100563.22;5098804;27;65312;-34
2022/04/09 08:45:36;;;;;;;17.02;14.52;;;;;;;32.00;40.64;100571.25;5122788;27;69424;-35
2022/04/09 08:48:09;;;;;;;16.15;14.57;;;;;;;32.02;39.75;100561.00;5108886;27;65893;-33
2022/04/09 08:50:47;;;;;;;16.20;14.70;;;;;;;31.91;39.57;100550.97;5110744;27;43748;-34
2022/04/09 08:53:18;;;;;;;17.60;14.43;;;;;;;31.98;38.44;100564.41;5111289;27;66636;-34
2022/04/09 08:55:51;;;;;;;17.50;14.35;;;;;;;31.97;38.50;100566.28;5106145;27;69305;-35
2022/04/09 08:58:21;;;;;;;15.18;13.82;;;;;;;31.93;38.11;100570.56;5100622;27;66528;-34
2022/04/09 09:00:52;;;;;;;15.77;14.25;;;;;;;31.92;38.20;100571.59;5108292;27;69758;-33
2022/04/09 09:03:24;;;;;;;16.05;14.43;;;;;;;31.74;40.04;100487.59;5103573;27;66011;-34
2022/04/09 09:05:55;;;;;;;17.10;14.30;;;;;;;32.47;41.56;100570.44;5108240;27;69366;-34
2022/04/09 09:08:42;;;;;;;28.23;15.80;;;;;;;32.66;44.69;100579.25;5107295;27;66346;-34
2022/04/09 09:11:14;;;;;;;17.25;15.18;;;;;;;32.84;43.53;100562.78;5102823;27;70411;-37
2022/04/09 09:13:53;;;;;;;26.95;15.93;;;;;;;32.65;46.71;100506.97;5110189;27;65936;-35
2022/04/09 09:16:29;;;;;;;22.50;17.13;;;;;;;33.03;49.49;100570.78;5106937;27;70436;-35
2022/04/09 09:19:05;;;;;;;20.67;17.00;;;;;;;32.93;50.61;100591.22;5105538;27;65685;-36
2022/04/09 09:21:36;;;;;;;21.83;17.45;;;;;;;32.89;51.37;100583.78;5101772;27;70041;-36
2022/04/09 09:24:09;;;;;;;29.67;22.63;;;;;;;33.00;48.88;100576.69;5112462;27;66496;-34
2022/04/09 09:26:40;;;;;;;35.58;26.02;;;;;;;33.05;46.94;100577.63;5106285;27;70097;-35
2022/04/09 09:29:23;;;;;;;37.43;27.80;;;;;;;33.11;45.86;100573.09;5112577;27;65551;-36
2022/04/09 09:31:55;;;;;;;56.22;27.15;;;;;;;33.25;45.33;100577.19;5123389;27;69239;-35
2022/04/09 09:34:26;;;;;;;41.83;26.08;;;;;;;33.26;44.55;100578.81;5114593;27;65843;-34
2022/04/09 09:36:57;;;;;;;38.35;26.60;;;;;;;33.36;44.85;100589.88;5110855;27;70651;-36
2022/04/09 09:39:34;;;;;;;52.30;27.92;;;;;;;33.38;45.35;100582.31;5096491;27;66412;-34
2022/04/09 09:42:05;;;;;;;40.95;27.63;;;;;;;33.42;45.39;100571.75;5097707;27;70094;-34
2022/04/09 09:44:43;;;;;;;38.80;27.05;;;;;;;33.04;46.90;100526.22;5115798;27;65440;-35
2022/04/09 09:47:20;;;;;;;36.03;25.02;;;;;;;33.42;46.47;100579.94;5110390;27;69222;-35
2022/04/09 09:49:53;;;;;;;40.22;26.35;;;;;;;33.48;47.41;100580.84;5112897;27;65893;-34
2022/04/09 09:52:26;;;;;;;42.45;26.85;;;;;;;33.43;48.14;100578.03;5127127;27;70033;-33
2022/04/09 09:55:13;;;;;;;44.67;28.73;;;;;;;32.77;47.77;100475.19;5123359;27;65294;-34
2022/04/09 09:57:48;;;;;;;40.83;28.70;;;;;;;33.44;46.92;100582.41;5102761;27;69879;-34
2022/04/09 10:00:20;;;;;;;41.35;26.85;;;;;;;33.37;46.76;100575.22;5107011;27;66245;-33
2022/04/09 10:02:51;;;;;;;45.90;28.13;;;;;;;33.49;47.29;100598.78;5109456;27;68325;-34
2022/04/09 10:05:23;;;;;;;37.50;26.92;;;;;;;33.38;46.96;100587.75;5111893;27;65531;-33
2022/04/09 10:07:57;;;;;;;34.80;25.55;;;;;;;33.29;46.89;100572.06;5117012;27;70375;-34
2022/04/09 10:10:29;;;;;;;37.07;26.80;;;;;;;33.42;46.90;100592.69;5104692;27;65517;-35
2022/04/09 10:13:02;;;;;;;47.45;27.77;;;;;;;33.40;46.34;100589.38;5110295;27;70154;-33
2022/04/09 10:15:33;;;;;;;38.08;25.92;;;;;;;33.00;46.43;100535.94;5117928;27;66621;-34
2022/04/09 10:18:26;;;;;;;32.50;26.13;;;;;;;33.32;46.97;100602.31;5124948;27;69564;-34
2022/04/09 10:21:03;;;;;;;39.53;27.77;;;;;;;33.35;46.83;100599.13;5105702;27;66303;-34
2022/04/09 10:23:35;;;;;;;36.85;27.45;;;;;;;33.06;47.85;100549.38;5111505;27;69238;-34
2022/04/09 10:26:06;;;;;;;44.78;27.08;;;;;;;33.43;48.65;100610.66;5117160;27;66888;-35
2022/04/09 10:28:38;;;;;;;41.05;27.35;;;;;;;33.36;50.11;100619.78;5098969;27;70178;-34
2022/04/09 10:31:28;;;;;;;36.83;27.63;;;;;;;33.29;49.47;100621.84;5104217;27;66090;-35
2022/04/09 10:34:00;;;;;;;38.38;27.35;;;;;;;33.08;47.92;100566.25;5112476;27;69432;-34
2022/04/09 10:36:46;;;;;;;41.72;29.50;;;;;;;33.31;47.61;100622.41;5105225;27;65610;-35
2022/04/09 10:39:42;;;;;;;37.78;29.15;;;;;;;33.19;48.19;100610.78;5106930;27;70396;-35
2022/04/09 10:42:42;;;;;;;41.63;29.02;;;;;;;33.26;47.83;100622.31;5114262;27;65768;-35
2022/04/09 10:45:13;;;;;;;34.67;27.20;;;;;;;33.34;47.55;100630.06;5108481;27;70566;-35
2022/04/09 10:48:46;;;;;;;38.17;28.10;;;;;;;33.21;47.45;100624.94;5117230;27;66241;-35
2022/04/09 10:51:18;;;;;;;45.88;29.13;;;;;;;33.29;47.85;100632.72;5110700;27;69374;-35
2022/04/09 10:54:45;;;;;;;;;;;;;;;;;;;;;
2022/04/09 10:57:23;;;;;;;37.75;27.35;;;;;;;33.21;47.36;100622.22;5121341;27;69331;-33
2022/04/09 11:00:00;;;;;;;44.03;29.40;;;;;;;33.25;47.81;100634.25;5111945;27;66571;-33
2022/04/09 11:02:31;;;;;;;38.95;28.92;;;;;;;33.16;47.63;100627.56;5105972;27;69737;-35
2022/04/09 11:05:23;;;;;;;45.20;29.05;;;;;;;33.09;48.12;100638.56;5105906;27;66254;-35
2022/04/09 11:08:23;;;;;;;46.17;28.52;;;;;;;33.05;49.46;100642.03;5110570;27;70125;-34
2022/04/09 11:10:54;;;;;;;39.58;27.95;;;;;;;33.17;48.39;100640.06;5099285;27;66447;-34
2022/04/09 11:13:31;;;;;;;39.90;28.20;;;;;;;33.12;48.93;100648.13;5106478;27;70858;-36
2022/04/09 11:16:02;;;;;;;48.85;28.80;;;;;;;33.12;47.70;100648.13;5122864;27;64409;-34
2022/04/09 11:18:42;;;;;;;42.90;29.52;;;;;;;33.06;48.15;100649.91;5106450;27;70385;-34
2022/04/09 11:21:39;;;;;;;38.55;29.35;;;;;;;32.96;48.19;100651.56;5101982;27;66612;-34
2022/04/09 11:24:10;;;;;;;36.90;30.00;;;;;;;33.12;47.94;100664.44;5104618;27;70051;-34
2022/04/09 11:26:41;;;;;;;46.45;29.70;;;;;;;33.06;48.17;100659.97;5104745;27;67065;-33
2022/04/09 11:29:49;;;;;;;43.97;29.92;;;;;;;32.96;48.15;100668.72;5110142;27;69343;-35
2022/04/09 11:32:21;;;;;;;40.03;29.65;;;;;;;33.07;47.93;100675.19;5095110;27;65476;-34
2022/04/09 11:34:53;;;;;;;40.53;29.83;;;;;;;33.04;47.33;100665.66;5104437;27;69842;-34
2022/04/09 11:37:33;;;;;;;40.78;30.98;;;;;;;33.03;47.65;100680.28;5109894;27;66372;-34
2022/04/09 11:40:06;;;;;;;41.88;28.77;;;;;;;32.70;47.57;100618.44;5102549;27;69406;-34
2022/04/09 11:42:51;;;;;;;42.75;28.15;;;;;;;32.72;47.45;100641.56;5110171;27;67742;-34
2022/04/09 11:45:27;;;;;;;42.40;28.45;;;;;;;32.88;47.00;100658.22;5112816;27;70290;-34
2022/04/09 11:48:03;;;;;;;45.50;29.10;;;;;;;32.99;47.77;100680.97;5119753;27;65283;-34